Time;durP1;ratioP1;P1;durP2;ratioP2;P2;SDS_P1;SDS_P2;PMS_P1;PMS_P2;Temp;Humidity;BMP_temperature;BMP_pressure;BME280_temperature;BME280_humidity;BME280_pressure;Samples;Min_cycle;Max_cycle;Signal;HPM_P1;HPM_P2
2023/01/18 00:00:29;;;;;;;12.60;5.70;;;;;;;3.21;42.24;99060.19;7392849;19;20096;-59
2023/01/18 00:02:56;;;;;;;13.73;7.13;;;;;;;3.36;41.83;99064.16;7393365;19;20019;-59
2023/01/18 00:05:22;;;;;;;11.35;6.13;;;;;;;3.24;42.04;99064.13;7391005;19;20365;-63
2023/01/18 00:07:48;;;;;;;11.75;6.03;;;;;;;3.27;42.12;99066.13;7390443;19;20006;-61
2023/01/18 00:10:14;;;;;;;13.27;6.57;;;;;;;3.26;42.13;99064.59;7392248;19;20014;-61
2023/01/18 00:12:40;;;;;;;13.57;6.97;;;;;;;3.24;41.94;99070.31;7392613;19;19999;-61
2023/01/18 00:15:07;;;;;;;18.17;7.20;;;;;;;3.18;42.29;99068.94;7390478;19;20066;-60
2023/01/18 00:17:32;;;;;;;14.85;6.88;;;;;;;3.11;42.36;99074.09;7389218;19;20379;-60
2023/01/18 00:19:58;;;;;;;12.25;7.25;;;;;;;3.11;42.51;99084.88;7391928;19;20016;-60
2023/01/18 00:22:24;;;;;;;15.15;7.60;;;;;;;3.22;42.24;99083.34;7392027;19;20498;-60
2023/01/18 00:24:49;;;;;;;13.93;7.00;;;;;;;3.22;42.04;99086.03;7390704;19;20003;-60
2023/01/18 00:27:15;;;;;;;14.35;7.45;;;;;;;3.19;42.21;99092.09;7391704;19;20003;-61
2023/01/18 00:29:41;;;;;;;15.45;7.93;;;;;;;3.14;42.40;99090.38;7392636;19;19998;-61
2023/01/18 00:32:07;;;;;;;14.18;7.57;;;;;;;3.09;42.40;99089.81;7391984;19;20002;-60
2023/01/18 00:34:32;;;;;;;15.82;7.88;;;;;;;3.08;42.46;99093.63;7391414;19;20010;-59
2023/01/18 00:36:58;;;;;;;15.02;7.55;;;;;;;3.08;42.43;99089.00;7391202;19;19995;-60
2023/01/18 00:39:24;;;;;;;15.98;7.90;;;;;;;3.18;42.31;99098.59;7389326;19;19999;-59
2023/01/18 00:44:34;;;;;;;16.13;8.57;;;;;;;3.17;42.26;99094.34;7390467;19;20009;-60
2023/01/18 00:46:59;;;;;;;16.45;8.25;;;;;;;3.10;42.30;99096.78;7389832;19;20011;-60
2023/01/18 00:49:25;;;;;;;16.10;7.95;;;;;;;3.09;42.35;99097.91;7391179;19;20006;-60
2023/01/18 00:51:51;;;;;;;16.75;8.77;;;;;;;3.13;42.43;99094.19;7390350;19;19999;-60
2023/01/18 00:54:17;;;;;;;18.50;8.50;;;;;;;3.16;42.16;99095.44;7390442;19;20005;-60
2023/01/18 00:56:43;;;;;;;15.48;8.40;;;;;;;3.10;42.27;99091.38;7389313;19;20006;-60
2023/01/18 00:59:09;;;;;;;14.13;8.05;;;;;;;2.96;42.56;99092.47;7389150;19;20371;-60
2023/01/18 01:01:35;;;;;;;14.38;7.88;;;;;;;3.09;42.21;99096.00;7389191;19;19994;-60
2023/01/18 01:06:45;;;;;;;15.00;8.00;;;;;;;2.96;42.38;99092.47;7390740;19;20054;-62
2023/01/18 01:09:25;;;;;;;14.73;7.97;;;;;;;3.01;42.26;99088.78;7389692;19;19991;-61
2023/01/18 01:26:09;;;;;;;17.00;8.07;;;;;;;3.18;42.06;99106.69;7390086;19;19995;-62
2023/01/18 01:28:41;;;;;;;15.45;7.32;;;;;;;3.14;42.10;99098.47;7389767;19;20001;-61
2023/01/18 01:31:10;;;;;;;15.45;7.65;;;;;;;3.08;42.21;99107.09;7390690;19;20378;-59
2023/01/18 01:33:36;;;;;;;13.60;7.60;;;;;;;3.05;42.22;99110.47;7388290;19;20003;-60
2023/01/18 01:36:08;;;;;;;13.18;7.25;;;;;;;3.04;42.17;99106.19;7390405;19;19991;-60
2023/01/18 01:38:34;;;;;;;13.60;7.15;;;;;;;3.08;42.11;99109.81;7388506;19;20058;-61
2023/01/18 01:41:04;;;;;;;14.65;7.68;;;;;;;3.12;41.95;99108.03;7389593;19;20036;-61
2023/01/18 01:43:49;;;;;;;15.77;8.43;;;;;;;3.14;41.81;99117.34;7389651;19;20010;-60
2023/01/18 01:46:37;;;;;;;14.13;7.30;;;;;;;3.17;41.70;99113.22;7388378;19;20015;-60
2023/01/18 01:49:05;;;;;;;16.48;7.60;;;;;;;3.27;41.68;99112.78;7389377;19;20010;-60
2023/01/18 01:51:34;;;;;;;16.13;8.38;;;;;;;3.07;42.10;99111.72;7390231;19;19995;-60
2023/01/18 01:54:03;;;;;;;16.65;8.38;;;;;;;3.11;42.17;99114.53;7388568;19;20011;-60
2023/01/18 01:56:31;;;;;;;14.77;7.30;;;;;;;3.14;41.69;99117.34;7388642;19;20002;-60
2023/01/18 01:59:00;;;;;;;14.85;7.35;;;;;;;3.17;41.92;99124.00;7386067;19;20333;-60
2023/01/18 02:01:27;;;;;;;14.35;6.97;;;;;;;3.15;41.76;99118.13;7388737;19;20090;-60
2023/01/18 02:03:56;;;;;;;14.35;7.20;;;;;;;3.17;41.71;99118.59;7386292;19;20467;-60
2023/01/18 02:06:30;;;;;;;14.60;7.20;;;;;;;3.05;42.15;99126.63;7388551;19;20470;-59
2023/01/18 02:08:59;;;;;;;14.95;7.53;;;;;;;3.14;41.94;99120.03;7387862;19;20475;-59
2023/01/18 02:11:25;;;;;;;14.20;8.23;;;;;;;3.07;41.81;99116.31;7388763;19;20011;-59
2023/01/18 02:13:53;;;;;;;15.38;7.75;;;;;;;3.11;41.91;99119.94;7391792;19;20010;-59
2023/01/18 02:17:07;;;;;;;14.73;7.10;;;;;;;3.04;42.00;99123.16;7396328;19;20038;-60
2023/01/18 02:19:54;;;;;;;15.82;7.82;;;;;;;3.00;42.20;99116.06;7396424;19;20002;-60
2023/01/18 02:22:46;;;;;;;14.38;7.72;;;;;;;2.90;42.10;99114.56;7396785;19;20002;-60
2023/01/18 02:25:39;;;;;;;14.85;7.70;;;;;;;2.83;42.38;99125.88;7390830;19;20007;-60
2023/01/18 02:28:29;;;;;;;15.27;8.02;;;;;;;2.81;42.38;99113.84;7394301;19;20508;-59
2023/01/18 02:31:09;;;;;;;19.83;7.97;;;;;;;2.86;42.28;99125.22;7395747;19;20037;-59
2023/01/18 02:33:41;;;;;;;13.93;7.90;;;;;;;2.87;42.34;99124.09;7396114;19;20507;-59
2023/01/18 02:36:07;;;;;;;15.85;7.88;;;;;;;2.93;42.09;99128.16;7395484;19;20386;-59
2023/01/18 02:38:39;;;;;;;13.88;8.13;;;;;;;2.96;41.95;99124.81;7391143;19;20003;-60
2023/01/18 02:41:15;;;;;;;16.63;8.65;;;;;;;2.85;42.31;99120.16;7395830;19;20010;-60
2023/01/18 02:46:35;;;;;;;15.18;7.90;;;;;;;2.87;42.16;99124.09;7394329;19;20007;-59
2023/01/18 02:49:10;;;;;;;16.05;7.30;;;;;;;2.79;42.26;99125.75;7395088;19;19995;-58
2023/01/18 02:51:36;;;;;;;14.43;7.28;;;;;;;2.80;42.22;99126.50;7393754;19;20030;-59
2023/01/18 02:54:07;;;;;;;14.68;7.20;;;;;;;2.89;42.04;99121.84;7394337;19;19999;-61
2023/01/18 02:56:48;;;;;;;13.57;7.57;;;;;;;2.76;42.21;99128.31;7395101;19;20006;-59
2023/01/18 02:59:26;;;;;;;16.23;8.05;;;;;;;2.94;42.08;99137.03;7392578;19;20003;-59
2023/01/18 03:02:03;;;;;;;13.68;7.22;;;;;;;2.91;41.89;99135.00;7395391;19;20003;-59
2023/01/18 03:04:35;;;;;;;14.43;7.72;;;;;;;2.72;42.49;99135.50;7393808;19;20458;-59
2023/01/18 03:07:08;;;;;;;15.32;7.72;;;;;;;2.86;42.17;99146.75;7394454;19;20015;-60
2023/01/18 03:09:34;;;;;;;13.20;7.30;;;;;;;2.74;42.27;99144.03;7395679;19;20006;-59
2023/01/18 03:12:08;;;;;;;14.85;8.40;;;;;;;2.86;42.35;99141.38;7394551;19;20239;-60
2023/01/18 03:14:49;;;;;;;15.48;8.38;;;;;;;2.89;41.92;99134.56;7393337;19;20007;-60
2023/01/18 03:17:40;;;;;;;15.50;8.15;;;;;;;2.80;42.30;99140.00;7393980;19;19998;-59
2023/01/18 03:20:11;;;;;;;15.57;8.75;;;;;;;2.68;42.38;99146.09;7394614;19;20027;-59
2023/01/18 03:25:36;;;;;;;15.05;8.13;;;;;;;2.66;42.46;99151.03;7393422;19;20003;-59
2023/01/18 03:33:47;;;;;;;15.68;8.65;;;;;;;2.74;42.29;99152.88;7392680;19;20006;-59
2023/01/18 03:36:18;;;;;;;16.65;8.52;;;;;;;2.67;42.37;99162.59;7394022;19;20008;-59
2023/01/18 03:38:48;;;;;;;16.25;9.30;;;;;;;2.56;42.69;99157.59;7392118;19;19994;-59
2023/01/18 03:41:15;;;;;;;16.17;9.00;;;;;;;2.59;42.54;99164.25;7393664;19;20006;-59
2023/01/18 03:43:41;;;;;;;18.35;9.40;;;;;;;2.52;42.77;99159.38;7392741;19;19995;-59
2023/01/18 03:46:07;;;;;;;15.65;8.70;;;;;;;2.53;42.76;99162.84;7393424;19;20054;-59
2023/01/18 03:48:35;;;;;;;14.77;8.55;;;;;;;2.54;42.77;99159.84;7392906;19;19998;-58
2023/01/18 03:51:13;;;;;;;17.35;9.25;;;;;;;2.57;42.76;99163.78;7394478;19;19991;-60
2023/01/18 03:53:59;;;;;;;16.73;8.82;;;;;;;2.61;42.46;99162.00;7392093;19;20009;-59
2023/01/18 03:56:36;;;;;;;17.20;9.20;;;;;;;2.61;42.74;99162.00;7393504;19;20012;-59
2023/01/18 03:59:04;;;;;;;17.25;8.73;;;;;;;2.56;42.68;99152.22;7389773;19;20010;-59
2023/01/18 04:01:30;;;;;;;17.30;8.73;;;;;;;2.57;42.62;99167.25;7393770;19;20013;-59
2023/01/18 04:03:56;;;;;;;15.73;8.40;;;;;;;2.66;42.48;99166.44;7392100;19;20083;-59
2023/01/18 04:06:22;;;;;;;15.55;8.20;;;;;;;2.69;42.39;99171.16;7392669;19;20462;-60
2023/01/18 04:08:49;;;;;;;14.95;8.38;;;;;;;2.72;42.29;99176.69;7392306;19;19991;-59
2023/01/18 04:11:15;;;;;;;15.05;7.95;;;;;;;2.79;42.18;99171.53;7391447;19;20005;-59
2023/01/18 04:13:40;;;;;;;17.48;8.73;;;;;;;2.60;42.31;99169.31;7391959;19;19998;-59
2023/01/18 04:16:06;;;;;;;15.68;8.70;;;;;;;2.70;42.37;99167.34;7391145;19;20026;-59
2023/01/18 04:18:32;;;;;;;16.65;8.57;;;;;;;2.74;42.11;99169.06;7390835;19;19998;-59
2023/01/18 04:20:58;;;;;;;17.45;8.30;;;;;;;2.64;42.31;99165.97;7392756;19;19991;-59
2023/01/18 04:23:24;;;;;;;15.20;7.57;;;;;;;2.57;42.35;99175.34;7390402;19;20001;-59
2023/01/18 04:25:50;;;;;;;14.27;8.52;;;;;;;2.61;42.58;99176.25;7392766;19;20003;-59
2023/01/18 04:28:24;;;;;;;15.45;8.07;;;;;;;2.76;42.10;99182.19;7391923;19;20320;-59
2023/01/18 04:30:51;;;;;;;14.30;8.00;;;;;;;2.85;41.95;99185.63;7392543;19;20311;-59
2023/01/18 04:33:19;;;;;;;15.85;8.90;;;;;;;2.82;42.06;99190.88;7391395;19;19999;-60
2023/01/18 04:35:48;;;;;;;16.35;8.55;;;;;;;2.77;42.35;99191.88;7390205;19;20005;-60
2023/01/18 04:38:15;;;;;;;15.23;8.15;;;;;;;2.67;42.25;99200.31;7390940;19;19999;-60
2023/01/18 04:40:41;;;;;;;19.15;9.07;;;;;;;2.55;42.33;99199.13;7391870;19;20061;-60
2023/01/18 04:43:08;;;;;;;14.43;8.23;;;;;;;2.55;42.74;99201.03;7389916;19;20007;-61
2023/01/18 04:45:33;;;;;;;15.80;8.88;;;;;;;2.64;42.45;99191.00;7391523;19;19994;-60
2023/01/18 04:47:59;;;;;;;18.30;9.15;;;;;;;2.61;42.35;99183.56;7388599;19;20003;-62
2023/01/18 04:50:25;;;;;;;16.58;9.35;;;;;;;2.55;42.41;99199.13;7392123;19;20006;-61
2023/01/18 04:52:51;;;;;;;15.73;9.15;;;;;;;2.52;42.34;99190.91;7390128;19;20013;-60
2023/01/18 04:55:17;;;;;;;16.92;9.38;;;;;;;2.41;42.83;99190.50;7389536;19;20535;-59
2023/01/18 04:57:43;;;;;;;18.25;9.38;;;;;;;2.65;42.40;99192.59;7389353;19;20380;-60
2023/01/18 05:00:11;;;;;;;16.92;8.85;;;;;;;2.64;42.17;99191.00;7390687;19;20005;-60
2023/01/18 05:02:37;;;;;;;16.85;8.75;;;;;;;2.50;42.63;99185.06;7391356;19;20003;-61
2023/01/18 05:05:04;;;;;;;19.10;9.63;;;;;;;2.45;42.66;99187.94;7389469;19;20007;-60
2023/01/18 05:07:32;;;;;;;17.25;9.63;;;;;;;2.43;42.75;99188.25;7390711;19;20558;-59
2023/01/18 05:10:02;;;;;;;16.42;10.10;;;;;;;2.51;42.71;99186.63;7391054;19;20009;-59
2023/01/18 05:12:28;;;;;;;14.75;8.98;;;;;;;2.52;42.72;99194.41;7391219;19;19995;-59
2023/01/18 05:14:54;;;;;;;14.85;9.20;;;;;;;2.46;42.67;99195.69;7386943;19;20431;-58
2023/01/18 05:17:20;;;;;;;15.95;9.70;;;;;;;2.57;42.45;99202.28;7387839;19;20046;-58
2023/01/18 05:19:47;;;;;;;16.40;9.27;;;;;;;2.64;42.31;99209.06;7390898;19;20027;-59
2023/01/18 05:22:13;;;;;;;17.23;9.07;;;;;;;2.62;42.35;99209.41;7390446;19;20007;-59
2023/01/18 05:24:39;;;;;;;15.77;9.60;;;;;;;2.55;42.45;99209.09;7388904;19;20002;-60
2023/01/18 05:27:04;;;;;;;18.33;9.52;;;;;;;2.55;42.28;99204.53;7389429;19;19995;-59
2023/01/18 05:29:30;;;;;;;17.70;10.00;;;;;;;2.55;42.48;99209.91;7390097;19;20058;-60
2023/01/18 05:31:56;;;;;;;17.48;10.23;;;;;;;2.57;42.33;99212.28;7390003;19;20006;-60
2023/01/18 05:34:22;;;;;;;16.58;9.48;;;;;;;2.48;42.42;99209.59;7388392;19;20006;-60
2023/01/18 05:36:47;;;;;;;19.35;9.82;;;;;;;2.42;42.45;99216.31;7390404;19;20019;-60
2023/01/18 05:39:13;;;;;;;17.35;9.68;;;;;;;2.42;42.57;99216.31;7388032;19;19999;-60
2023/01/18 05:41:39;;;;;;;18.45;10.27;;;;;;;2.55;42.47;99225.25;7390504;19;20019;-59
2023/01/18 05:44:05;;;;;;;18.25;10.32;;;;;;;2.47;42.57;99224.22;7388456;19;20002;-59
2023/01/18 05:46:31;;;;;;;17.92;10.43;;;;;;;2.47;42.50;99237.69;7388811;19;20078;-60
2023/01/18 05:48:57;;;;;;;17.95;10.60;;;;;;;2.44;42.51;99235.63;7396650;19;20006;-60
2023/01/18 05:51:24;;;;;;;15.93;10.02;;;;;;;2.40;42.62;99238.19;7395762;19;20005;-60
2023/01/18 05:53:49;;;;;;;19.05;10.50;;;;;;;2.46;42.62;99241.47;7396614;19;20014;-60
2023/01/18 05:56:16;;;;;;;18.92;10.68;;;;;;;2.46;42.55;99240.69;7397626;19;19994;-60
2023/01/18 05:58:42;;;;;;;15.93;9.50;;;;;;;2.46;42.48;99244.16;7394686;19;19994;-60
2023/01/18 06:01:08;;;;;;;19.65;10.80;;;;;;;2.45;42.57;99245.28;7396188;19;20465;-60
2023/01/18 06:03:34;;;;;;;19.75;9.70;;;;;;;2.51;42.22;99257.44;7396115;19;19999;-61
2023/01/18 06:06:00;;;;;;;19.63;10.23;;;;;;;2.42;42.59;99248.63;7396860;19;19998;-61
2023/01/18 06:08:26;;;;;;;17.73;9.70;;;;;;;2.56;42.26;99256.47;7395729;19;20340;-61
2023/01/18 06:10:57;;;;;;;18.17;9.63;;;;;;;2.58;42.51;99257.75;7396738;19;20007;-60
2023/01/18 06:13:26;;;;;;;16.45;9.60;;;;;;;2.50;42.44;99253.19;7395841;19;20361;-61
2023/01/18 06:15:53;;;;;;;17.88;10.18;;;;;;;2.65;42.22;99261.81;7396754;19;20010;-60
2023/01/18 06:18:20;;;;;;;17.35;9.77;;;;;;;2.64;42.04;99263.72;7393129;19;20002;-60
2023/01/18 06:20:46;;;;;;;20.58;9.93;;;;;;;2.61;41.94;99267.06;7394422;19;20005;-59
2023/01/18 06:23:12;;;;;;;18.45;9.98;;;;;;;2.54;42.35;99267.56;7396124;19;20006;-60
2023/01/18 06:25:38;;;;;;;20.02;10.73;;;;;;;2.54;42.31;99272.97;7393960;19;19999;-60
2023/01/18 06:28:04;;;;;;;19.80;10.15;;;;;;;2.47;42.23;99272.69;7395990;19;20827;-60
2023/01/18 06:30:30;;;;;;;19.50;11.05;;;;;;;2.42;42.36;99280.94;7396312;19;20426;-60
2023/01/18 06:32:56;;;;;;;21.52;11.30;;;;;;;2.43;42.45;99282.50;7395606;19;20003;-60
2023/01/18 06:35:22;;;;;;;17.55;10.40;;;;;;;2.48;42.39;99281.56;7393411;19;20413;-60
2023/01/18 06:37:48;;;;;;;17.33;10.30;;;;;;;2.42;42.37;99286.34;7393842;19;19999;-60
2023/01/18 06:40:14;;;;;;;17.27;10.57;;;;;;;2.39;42.65;99295.84;7394781;19;20001;-60
2023/01/18 06:42:40;;;;;;;19.95;10.35;;;;;;;2.39;42.77;99293.16;7394529;19;20022;-60
2023/01/18 06:45:06;;;;;;;20.45;9.98;;;;;;;2.38;42.58;99298.84;7394277;19;20019;-61
2023/01/18 06:47:32;;;;;;;25.13;10.95;;;;;;;2.40;42.44;99305.50;7393558;19;20023;-61
2023/01/18 06:49:58;;;;;;;19.88;11.40;;;;;;;2.40;42.40;99310.09;7394682;19;20341;-61
2023/01/18 06:52:23;;;;;;;18.02;11.02;;;;;;;2.41;42.43;99314.38;7394889;19;20032;-61
2023/01/18 06:54:49;;;;;;;22.65;11.65;;;;;;;2.37;42.50;99316.13;7392048;19;20005;-61
2023/01/18 06:57:15;;;;;;;18.58;10.65;;;;;;;2.43;42.39;99325.59;7392292;19;20014;-61
2023/01/18 06:59:41;;;;;;;21.00;11.25;;;;;;;2.46;42.42;99324.97;7393279;19;20010;-60
2023/01/18 07:02:13;;;;;;;19.38;11.07;;;;;;;2.39;42.48;99330.06;7394109;19;19995;-58
2023/01/18 07:04:42;;;;;;;19.60;10.18;;;;;;;2.35;42.47;99334.50;7393515;19;20003;-61
2023/01/18 07:07:08;;;;;;;20.80;10.95;;;;;;;2.42;42.43;99330.22;7393738;19;20353;-61
2023/01/18 07:09:34;;;;;;;19.92;11.70;;;;;;;2.47;42.30;99341.91;7394034;19;20010;-61
2023/01/18 07:12:00;;;;;;;19.88;10.65;;;;;;;2.45;42.13;99344.94;7392477;19;20002;-61
2023/01/18 07:14:25;;;;;;;19.42;10.73;;;;;;;2.44;42.48;99351.44;7392905;19;20018;-60
2023/01/18 07:16:51;;;;;;;18.70;10.43;;;;;;;2.33;42.75;99347.50;7393749;19;20470;-60
2023/01/18 07:19:17;;;;;;;19.75;10.88;;;;;;;2.31;42.61;99355.13;7390765;19;19998;-60
2023/01/18 07:21:43;;;;;;;20.38;11.32;;;;;;;2.42;42.51;99359.06;7393837;19;20455;-60
2023/01/18 07:24:09;;;;;;;18.40;11.63;;;;;;;2.29;42.68;99357.34;7392667;19;19999;-59
2023/01/18 07:26:35;;;;;;;21.67;11.48;;;;;;;2.38;42.46;99360.78;7392056;19;19995;-60
2023/01/18 07:29:00;;;;;;;24.42;11.60;;;;;;;2.34;42.56;99365.25;7391395;19;20014;-60
2023/01/18 07:31:26;;;;;;;22.45;11.80;;;;;;;2.33;42.52;99363.66;7393974;19;20068;-61
2023/01/18 07:33:52;;;;;;;18.95;10.80;;;;;;;2.27;42.72;99370.31;7393111;19;20062;-60
2023/01/18 07:36:19;;;;;;;21.33;11.82;;;;;;;2.37;42.48;99373.47;7392973;19;19998;-59
2023/01/18 07:38:46;;;;;;;22.27;12.75;;;;;;;2.31;42.60;99377.44;7391294;19;20003;-60
2023/01/18 07:41:13;;;;;;;22.60;12.45;;;;;;;2.33;42.67;99382.50;7394116;19;20007;-60
2023/01/18 07:43:40;;;;;;;20.77;11.55;;;;;;;2.15;42.85;99376.34;7392451;19;20037;-60
2023/01/18 07:46:09;;;;;;;20.45;11.02;;;;;;;2.19;42.93;99383.47;7393367;19;19999;-59
2023/01/18 07:48:35;;;;;;;18.65;11.60;;;;;;;2.13;42.97;99392.03;7389929;19;20003;-60
2023/01/18 07:51:03;;;;;;;20.02;11.45;;;;;;;2.21;42.99;99389.31;7393433;19;20012;-60
2023/01/18 07:53:30;;;;;;;23.92;12.10;;;;;;;2.27;42.64;99387.28;7391202;19;20315;-60
2023/01/18 07:56:00;;;;;;;22.52;12.00;;;;;;;2.32;42.64;99397.88;7393684;19;20106;-60
2023/01/18 07:58:27;;;;;;;19.70;11.77;;;;;;;2.34;42.49;99402.94;7390179;19;20006;-60
2023/01/18 08:00:53;;;;;;;21.35;12.10;;;;;;;2.23;42.67;99403.28;7392729;19;20061;-60
2023/01/18 08:03:19;;;;;;;21.27;10.52;;;;;;;2.33;42.75;99412.13;7392470;19;19995;-60
2023/01/18 08:05:46;;;;;;;21.52;11.45;;;;;;;2.23;42.73;99414.06;7392677;19;20003;-59
2023/01/18 08:08:14;;;;;;;17.98;11.10;;;;;;;2.28;42.82;99415.00;7392155;19;20011;-61
2023/01/18 08:10:41;;;;;;;19.08;11.63;;;;;;;2.29;42.70;99416.56;7392189;19;20003;-59
2023/01/18 08:13:10;;;;;;;21.00;11.57;;;;;;;2.27;42.87;99419.59;7392089;19;20011;-60
2023/01/18 08:15:39;;;;;;;21.52;12.00;;;;;;;2.27;42.61;99421.47;7390780;19;20353;-60
2023/01/18 08:18:07;;;;;;;21.38;12.10;;;;;;;2.21;42.77;99424.31;7390927;19;20005;-60
2023/01/18 08:20:33;;;;;;;20.40;12.15;;;;;;;2.29;42.79;99427.34;7392049;19;19999;-59
2023/01/18 08:23:00;;;;;;;20.15;11.25;;;;;;;2.23;42.70;99430.22;7390592;19;20004;-59
2023/01/18 08:25:28;;;;;;;23.55;11.85;;;;;;;2.34;42.58;99435.25;7390115;19;20352;-60
2023/01/18 08:27:58;;;;;;;20.80;12.20;;;;;;;2.35;42.50;99436.81;7390898;19;20446;-59
2023/01/18 08:30:27;;;;;;;23.17;12.32;;;;;;;2.32;42.68;99442.88;7392047;19;20475;-60
2023/01/18 08:32:57;;;;;;;23.67;12.43;;;;;;;2.44;42.26;99445.69;7391614;19;20014;-60
2023/01/18 08:35:24;;;;;;;20.10;11.18;;;;;;;2.41;42.41;99449.03;7389766;19;20024;-61
2023/01/18 08:38:00;;;;;;;21.40;12.07;;;;;;;2.35;42.53;99453.78;7388831;19;20010;-60
2023/01/18 08:40:27;;;;;;;19.85;11.35;;;;;;;2.44;42.58;99455.69;7391806;19;20030;-60
2023/01/18 08:43:01;;;;;;;20.20;11.57;;;;;;;2.63;42.30;99458.81;7390804;19;20066;-60
2023/01/18 08:45:27;;;;;;;21.10;11.93;;;;;;;2.65;42.01;99450.41;7391448;19;19995;-59
2023/01/18 08:48:08;;;;;;;23.35;11.63;;;;;;;2.45;42.30;99451.88;7388263;19;20401;-61
2023/01/18 08:50:35;;;;;;;22.75;12.35;;;;;;;2.47;42.46;99461.22;7391046;19;20130;-62
2023/01/18 08:53:02;;;;;;;20.77;11.73;;;;;;;2.51;42.45;99464.06;7388328;19;20474;-61
2023/01/18 08:55:29;;;;;;;20.67;12.27;;;;;;;2.47;42.43;99465.81;7389160;19;20408;-61
2023/01/18 08:57:56;;;;;;;27.35;12.82;;;;;;;2.47;42.54;99468.50;7388834;19;20002;-61
2023/01/18 09:00:29;;;;;;;22.40;12.02;;;;;;;2.60;42.39;99471.03;7391288;19;20006;-60
2023/01/18 09:02:55;;;;;;;21.40;12.80;;;;;;;2.52;42.39;99479.13;7388830;19;20021;-61
2023/01/18 09:05:23;;;;;;;22.58;11.75;;;;;;;2.58;42.35;99480.53;7389168;19;19999;-61
2023/01/18 09:07:51;;;;;;;23.35;13.07;;;;;;;2.70;42.13;99479.88;7389349;19;20005;-61
2023/01/18 09:10:17;;;;;;;22.85;11.43;;;;;;;2.74;42.08;99489.69;7390281;19;20343;-60
2023/01/18 09:12:42;;;;;;;21.23;12.27;;;;;;;2.67;42.29;99483.19;7389841;19;19995;-61
2023/01/18 09:15:09;;;;;;;19.02;11.73;;;;;;;2.68;42.51;99490.19;7388941;19;19999;-61
2023/01/18 09:17:34;;;;;;;20.10;11.93;;;;;;;2.68;42.51;99492.88;7390026;19;19991;-62
2023/01/18 09:20:00;;;;;;;22.30;12.27;;;;;;;2.70;42.37;99498.72;7388236;19;19997;-61
2023/01/18 09:22:26;;;;;;;23.67;12.05;;;;;;;2.85;42.04;99509.03;7392756;19;20005;-61
2023/01/18 09:24:51;;;;;;;21.05;11.70;;;;;;;2.89;42.08;99501.88;7395070;19;20059;-60
2023/01/18 09:27:17;;;;;;;20.98;11.63;;;;;;;2.93;41.99;99516.28;7397641;19;20090;-60
2023/01/18 09:29:45;;;;;;;20.60;12.23;;;;;;;2.78;42.19;99512.22;7397914;19;20009;-59
2023/01/18 09:32:12;;;;;;;24.58;12.55;;;;;;;2.94;42.19;99525.97;7398163;19;20709;-60
2023/01/18 09:34:37;;;;;;;21.55;11.63;;;;;;;2.94;42.14;99517.88;7396020;19;20722;-61
2023/01/18 09:37:03;;;;;;;23.50;12.52;;;;;;;3.01;42.16;99527.38;7397515;19;20140;-60
2023/01/18 09:39:29;;;;;;;20.58;11.68;;;;;;;3.07;41.96;99534.16;7394391;19;20462;-61
2023/01/18 09:41:59;;;;;;;23.05;11.05;;;;;;;3.15;41.87;99536.88;7397475;19;19999;-61
2023/01/18 09:44:37;;;;;;;21.85;11.98;;;;;;;3.02;42.25;99534.34;7395216;19;20066;-60
2023/01/18 09:47:10;;;;;;;20.52;11.57;;;;;;;3.01;42.33;99533.56;7395762;19;20021;-60
2023/01/18 09:49:50;;;;;;;20.63;11.65;;;;;;;2.94;42.48;99544.81;7396359;19;20006;-60
2023/01/18 09:52:31;;;;;;;18.35;11.32;;;;;;;3.06;42.14;99544.16;7397597;19;20014;-60
2023/01/18 09:54:57;;;;;;;20.00;12.20;;;;;;;3.10;42.20;99550.50;7394900;19;20320;-61
2023/01/18 09:57:25;;;;;;;22.75;11.82;;;;;;;3.21;42.18;99548.25;7395653;19;20009;-59
2023/01/18 09:59:56;;;;;;;18.92;11.15;;;;;;;3.31;41.86;99553.28;7397063;19;20042;-60
2023/01/18 10:02:28;;;;;;;21.80;11.93;;;;;;;3.32;41.96;99554.09;7394298;19;20023;-59
2023/01/18 10:05:05;;;;;;;20.00;11.70;;;;;;;3.27;42.30;99562.34;7394905;19;20003;-60
2023/01/18 10:07:36;;;;;;;20.38;10.98;;;;;;;3.38;42.02;99557.41;7395701;19;20058;-60
2023/01/18 10:10:03;;;;;;;21.67;11.70;;;;;;;3.28;42.01;99553.94;7397154;19;20447;-60
2023/01/18 10:12:43;;;;;;;18.48;11.13;;;;;;;3.33;41.91;99559.16;7394592;19;20524;-61
2023/01/18 10:15:19;;;;;;;18.60;10.68;;;;;;;3.30;41.99;99556.31;7393995;19;20101;-61
2023/01/18 10:17:46;;;;;;;19.90;11.48;;;;;;;3.41;41.86;99557.53;7394917;19;20031;-60
2023/01/18 10:20:18;;;;;;;21.50;12.27;;;;;;;3.51;41.76;99561.84;7396430;19;20011;-60
2023/01/18 10:23:13;;;;;;;19.85;11.75;;;;;;;3.56;42.08;99556.25;7396429;19;20320;-61
2023/01/18 10:25:51;;;;;;;22.52;11.15;;;;;;;3.62;41.73;99557.66;7395855;19;20015;-60
2023/01/18 10:28:32;;;;;;;22.02;11.40;;;;;;;3.64;41.75;99565.44;7395222;19;20007;-60
2023/01/18 10:31:06;;;;;;;22.02;12.70;;;;;;;3.58;41.59;99564.81;7395898;19;20467;-59
2023/01/18 10:33:40;;;;;;;25.50;11.70;;;;;;;3.58;42.03;99566.72;7391563;19;20443;-60
2023/01/18 10:36:19;;;;;;;20.15;11.77;;;;;;;3.57;41.89;99559.72;7396337;19;20002;-60
2023/01/18 10:38:48;;;;;;;22.27;11.93;;;;;;;3.34;42.25;99566.13;7391437;19;20044;-60
2023/01/18 10:41:19;;;;;;;20.30;11.32;;;;;;;3.39;42.37;99556.31;7396075;19;20006;-60
2023/01/18 10:43:45;;;;;;;22.92;12.27;;;;;;;3.57;42.01;99559.72;7394573;19;20033;-61
2023/01/18 10:46:14;;;;;;;22.17;12.10;;;;;;;3.64;41.66;99560.03;7394849;19;20014;-59
2023/01/18 10:48:44;;;;;;;18.60;12.00;;;;;;;3.60;41.89;99565.28;7391735;19;20009;-63
2023/01/18 10:51:24;;;;;;;22.30;11.77;;;;;;;3.68;41.59;99563.66;7395651;19;20010;-60
2023/01/18 10:53:50;;;;;;;25.00;12.00;;;;;;;3.66;41.88;99557.81;7394287;19;20002;-60
2023/01/18 10:56:19;;;;;;;19.77;12.35;;;;;;;3.70;41.87;99554.13;7395257;19;20003;-60
2023/01/18 10:58:56;;;;;;;19.90;11.60;;;;;;;3.40;42.39;99561.34;7390640;19;20017;-62
2023/01/18 11:01:33;;;;;;;20.25;11.95;;;;;;;3.62;42.14;99565.75;7394664;19;19999;-60
2023/01/18 11:04:06;;;;;;;22.00;12.68;;;;;;;3.68;41.81;99561.75;7393485;19;20382;-60
2023/01/18 11:06:50;;;;;;;22.48;12.40;;;;;;;3.71;42.05;99561.09;7392327;19;20470;-60
2023/01/18 11:09:42;;;;;;;21.63;12.23;;;;;;;3.74;41.75;99553.47;7394240;19;20002;-61
2023/01/18 11:12:44;;;;;;;22.08;12.10;;;;;;;3.77;41.74;99550.94;7395022;19;20003;-60
2023/01/18 11:15:13;;;;;;;20.98;12.07;;;;;;;3.79;41.92;99561.41;7392401;19;19990;-60
2023/01/18 11:17:59;;;;;;;18.25;11.10;;;;;;;3.58;42.21;99556.72;7393637;19;20496;-60
2023/01/18 11:20:35;;;;;;;19.23;11.05;;;;;;;3.76;41.89;99556.66;7392359;19;20002;-59
2023/01/18 11:23:01;;;;;;;19.95;11.50;;;;;;;3.70;42.06;99556.84;7394681;19;20003;-59
2023/01/18 11:25:50;;;;;;;22.45;11.10;;;;;;;3.80;41.94;99557.56;7393470;19;20364;-59
2023/01/18 11:28:21;;;;;;;19.65;12.02;;;;;;;3.86;41.87;99567.06;7394043;19;20018;-59
2023/01/18 11:31:08;;;;;;;21.75;11.43;;;;;;;3.82;41.86;99558.03;7393456;19;20006;-59
2023/01/18 11:33:39;;;;;;;21.60;11.30;;;;;;;3.90;41.56;99558.00;7393360;19;20011;-60
2023/01/18 11:36:06;;;;;;;19.27;11.38;;;;;;;3.84;41.77;99558.50;7392639;19;20067;-61
2023/01/18 11:38:33;;;;;;;21.77;10.52;;;;;;;3.70;42.23;99554.13;7391953;19;20398;-61
2023/01/18 11:41:02;;;;;;;22.52;11.30;;;;;;;3.86;41.89;99561.69;7391935;19;20005;-61
2023/01/18 11:43:30;;;;;;;18.25;11.07;;;;;;;3.58;42.50;99555.94;7393247;19;20002;-60
2023/01/18 11:46:25;;;;;;;20.77;11.65;;;;;;;3.98;42.14;99550.94;7392470;19;20019;-60
2023/01/18 11:48:58;;;;;;;18.52;10.80;;;;;;;4.18;41.36;99556.72;7388477;19;20058;-60
2023/01/18 11:51:33;;;;;;;21.10;11.73;;;;;;;4.14;41.56;99551.19;7393487;19;20058;-60
2023/01/18 11:54:05;;;;;;;20.23;10.55;;;;;;;4.20;41.49;99549.06;7392510;19;20019;-60
2023/01/18 11:56:38;;;;;;;19.98;10.90;;;;;;;4.38;41.11;99555.94;7393314;19;20026;-59
2023/01/18 11:59:13;;;;;;;18.77;10.50;;;;;;;4.40;40.98;99555.59;7390833;19;20005;-60
2023/01/18 12:02:36;;;;;;;17.35;10.05;;;;;;;4.23;41.50;99556.53;7393467;19;20006;-60
2023/01/18 12:05:17;;;;;;;18.80;9.63;;;;;;;4.35;41.22;99555.78;7387497;19;20002;-60
2023/01/18 12:08:07;;;;;;;19.35;9.63;;;;;;;4.41;41.06;99549.09;7388235;19;20003;-60
2023/01/18 12:11:08;;;;;;;17.95;10.07;;;;;;;4.27;41.36;99557.44;7392392;19;20002;-60
2023/01/18 12:13:58;;;;;;;17.50;9.38;;;;;;;4.20;41.50;99549.06;7390097;19;20002;-60